sensor_id;sensor_type;location;lat;lon;timestamp;pressure;altitude;pressure_sealevel;temperature;humidity
54439;BME280;40347;53.848;27.498;2022-08-06T00:03:32;1014.5;;;21.6;73.4
54439;BME280;40347;53.848;27.498;2022-08-06T00:08:32;1014.5;;;21.5;73.4
54439;BME280;40347;53.848;27.498;2022-08-06T00:13:32;1014.5;;;21.5;73.6
54439;BME280;40347;53.848;27.498;2022-08-06T00:18:32;1014.5;;;21.4;73.7
54439;BME280;40347;53.848;27.498;2022-08-06T00:23:32;1014.5;;;21.4;74
54439;BME280;40347;53.848;27.498;2022-08-06T00:28:32;1014.5;;;21.3;74.4
54439;BME280;40347;53.848;27.498;2022-08-06T00:33:32;1014.5;;;21.3;74.4
54439;BME280;40347;53.848;27.498;2022-08-06T00:38:32;1014.6;;;21.3;74.4
54439;BME280;40347;53.848;27.498;2022-08-06T00:43:32;1014.6;;;21.2;74.4
54439;BME280;40347;53.848;27.498;2022-08-06T00:48:32;1014.6;;;21.2;74.4
54439;BME280;40347;53.848;27.498;2022-08-06T00:53:32;1014.5;;;21.1;74.7
54439;BME280;40347;53.848;27.498;2022-08-06T00:58:32;1014.5;;;21.1;75
54439;BME280;40347;53.848;27.498;2022-08-06T01:03:32;1014.5;;;21.1;75
54439;BME280;40347;53.848;27.498;2022-08-06T01:08:32;1014.5;;;21;75
54439;BME280;40347;53.848;27.498;2022-08-06T01:13:32;1014.5;;;20.9;75.2
54439;BME280;40347;53.848;27.498;2022-08-06T01:18:34;1014.5;;;20.9;75.4
54439;BME280;40347;53.848;27.498;2022-08-06T01:23:35;1014.6;;;20.8;75.6
54439;BME280;40347;53.848;27.498;2022-08-06T01:29:05;1014.6;;;20.8;75.9
54439;BME280;40347;53.848;27.498;2022-08-06T01:33:33;1014.6;;;20.7;76
54439;BME280;40347;53.848;27.498;2022-08-06T01:38:34;1014.7;;;20.7;76.2
54439;BME280;40347;53.848;27.498;2022-08-06T01:43:32;1014.6;;;20.6;76.3
54439;BME280;40347;53.848;27.498;2022-08-06T01:48:32;1014.7;;;20.5;76.7
54439;BME280;40347;53.848;27.498;2022-08-06T01:53:35;1014.7;;;20.5;77
54439;BME280;40347;53.848;27.498;2022-08-06T01:58:34;1014.8;;;20.5;77.1
54439;BME280;40347;53.848;27.498;2022-08-06T02:03:35;1014.8;;;20.5;77.1
54439;BME280;40347;53.848;27.498;2022-08-06T02:08:33;1014.8;;;20.5;77
54439;BME280;40347;53.848;27.498;2022-08-06T02:13:32;1014.8;;;20.4;77.2
54439;BME280;40347;53.848;27.498;2022-08-06T02:18:36;1014.8;;;20.4;77.2
54439;BME280;40347;53.848;27.498;2022-08-06T02:23:32;1014.8;;;20.4;77.3
54439;BME280;40347;53.848;27.498;2022-08-06T02:28:32;1014.9;;;20.4;77.6
54439;BME280;40347;53.848;27.498;2022-08-06T02:33:32;1014.8;;;20.4;77.7
54439;BME280;40347;53.848;27.498;2022-08-06T02:38:35;1014.8;;;20.4;77.6
54439;BME280;40347;53.848;27.498;2022-08-06T02:43:33;1014.7;;;20.3;77.7
54439;BME280;40347;53.848;27.498;2022-08-06T02:48:34;1014.7;;;20.3;77.8
54439;BME280;40347;53.848;27.498;2022-08-06T02:53:34;1014.7;;;20.4;77.7
54439;BME280;40347;53.848;27.498;2022-08-06T02:58:33;1014.7;;;20.3;77.9
54439;BME280;40347;53.848;27.498;2022-08-06T03:03:32;1014.6;;;20.4;77.8
54439;BME280;40347;53.848;27.498;2022-08-06T03:08:32;1014.6;;;20.4;77.8
54439;BME280;40347;53.848;27.498;2022-08-06T03:13:32;1014.6;;;20.4;78
54439;BME280;40347;53.848;27.498;2022-08-06T03:18:33;1014.6;;;20.4;78
54439;BME280;40347;53.848;27.498;2022-08-06T03:23:32;1014.6;;;20.5;78
54439;BME280;40347;53.848;27.498;2022-08-06T03:28:32;1014.6;;;20.6;77.7
54439;BME280;40347;53.848;27.498;2022-08-06T03:33:32;1014.6;;;20.7;77.1
54439;BME280;40347;53.848;27.498;2022-08-06T03:38:37;1014.6;;;20.8;76.6
54439;BME280;40347;53.848;27.498;2022-08-06T03:43:32;1014.7;;;20.8;76.6
54439;BME280;40347;53.848;27.498;2022-08-06T03:48:34;1014.8;;;20.9;76.3
54439;BME280;40347;53.848;27.498;2022-08-06T03:53:32;1014.7;;;21.1;76
54439;BME280;40347;53.848;27.498;2022-08-06T03:58:32;1014.8;;;21.2;75.8
54439;BME280;40347;53.848;27.498;2022-08-06T04:03:32;1014.8;;;21.2;75.2
54439;BME280;40347;53.848;27.498;2022-08-06T04:08:32;1014.9;;;21.3;75
54439;BME280;40347;53.848;27.498;2022-08-06T04:13:32;1014.9;;;21.4;74.8
54439;BME280;40347;53.848;27.498;2022-08-06T04:18:33;1014.9;;;21.5;74.7
54439;BME280;40347;53.848;27.498;2022-08-06T04:23:32;1015;;;21.6;74.4
54439;BME280;40347;53.848;27.498;2022-08-06T04:28:33;1015.1;;;21.6;74.2
54439;BME280;40347;53.848;27.498;2022-08-06T04:33:32;1015.1;;;21.7;74
54439;BME280;40347;53.848;27.498;2022-08-06T04:38:32;1015.2;;;21.8;73.8
54439;BME280;40347;53.848;27.498;2022-08-06T04:43:32;1015.2;;;21.9;73.7
54439;BME280;40347;53.848;27.498;2022-08-06T04:48:33;1015.1;;;22.1;73.2
54439;BME280;40347;53.848;27.498;2022-08-06T04:53:36;1015.1;;;22.5;72.5
54439;BME280;40347;53.848;27.498;2022-08-06T04:58:33;1015.1;;;22.9;71.4
54439;BME280;40347;53.848;27.498;2022-08-06T05:03:32;1015.1;;;23;70.8
54439;BME280;40347;53.848;27.498;2022-08-06T05:08:33;1015.1;;;23;70.9
54439;BME280;40347;53.848;27.498;2022-08-06T05:13:35;1015.2;;;23;71.2
54439;BME280;40347;53.848;27.498;2022-08-06T05:18:34;1015.1;;;23;71.3
54439;BME280;40347;53.848;27.498;2022-08-06T05:23:35;1015.1;;;23;71.1
54439;BME280;40347;53.848;27.498;2022-08-06T05:28:32;1015.1;;;23.1;71.1
54439;BME280;40347;53.848;27.498;2022-08-06T05:33:33;1015;;;23.5;70.4
54439;BME280;40347;53.848;27.498;2022-08-06T05:38:33;1015;;;23.8;69.7
54439;BME280;40347;53.848;27.498;2022-08-06T05:43:32;1015;;;24.1;69.2
54439;BME280;40347;53.848;27.498;2022-08-06T05:48:34;1015;;;24.3;68.6
54439;BME280;40347;53.848;27.498;2022-08-06T05:53:36;1015;;;24.4;68
54439;BME280;40347;53.848;27.498;2022-08-06T05:58:35;1015;;;24.5;67.7
54439;BME280;40347;53.848;27.498;2022-08-06T06:03:32;1014.9;;;24.6;67.2
54439;BME280;40347;53.848;27.498;2022-08-06T06:08:32;1014.9;;;24.7;66.9
54439;BME280;40347;53.848;27.498;2022-08-06T06:13:32;1014.9;;;24.9;66.8
54439;BME280;40347;53.848;27.498;2022-08-06T06:18:43;1014.9;;;25;66.3
54439;BME280;40347;53.848;27.498;2022-08-06T06:23:35;1014.9;;;25.2;65.8
54439;BME280;40347;53.848;27.498;2022-08-06T06:28:34;1014.9;;;25.3;65.7
54439;BME280;40347;53.848;27.498;2022-08-06T06:33:37;1014.9;;;25.4;65.3
54439;BME280;40347;53.848;27.498;2022-08-06T06:38:54;1014.8;;;25.6;65.2
54439;BME280;40347;53.848;27.498;2022-08-06T06:43:49;1014.8;;;25.7;64.9
54439;BME280;40347;53.848;27.498;2022-08-06T06:48:37;1014.8;;;25.8;64.8
54439;BME280;40347;53.848;27.498;2022-08-06T06:53:34;1014.8;;;26;64.3
54439;BME280;40347;53.848;27.498;2022-08-06T06:58:34;1014.8;;;26.1;64
54439;BME280;40347;53.848;27.498;2022-08-06T07:03:32;1014.8;;;26.3;63.3
54439;BME280;40347;53.848;27.498;2022-08-06T07:08:33;1014.8;;;26.5;63.3
54439;BME280;40347;53.848;27.498;2022-08-06T07:13:32;1014.8;;;26.6;63
54439;BME280;40347;53.848;27.498;2022-08-06T07:18:33;1014.7;;;26.8;62.7
54439;BME280;40347;53.848;27.498;2022-08-06T07:23:33;1014.7;;;27;62.5
54439;BME280;40347;53.848;27.498;2022-08-06T07:28:32;1014.6;;;27.1;62.4
54439;BME280;40347;53.848;27.498;2022-08-06T07:33:33;1014.7;;;27.2;62.1
54439;BME280;40347;53.848;27.498;2022-08-06T07:38:33;1014.6;;;27.4;61.6
54439;BME280;40347;53.848;27.498;2022-08-06T07:43:34;1014.6;;;27.6;61.1
54439;BME280;40347;53.848;27.498;2022-08-06T07:48:34;1014.6;;;27.6;60.3
54439;BME280;40347;53.848;27.498;2022-08-06T07:53:33;1014.6;;;27.7;60
54439;BME280;40347;53.848;27.498;2022-08-06T07:58:33;1014.5;;;27.6;60.3
54439;BME280;40347;53.848;27.498;2022-08-06T08:03:32;1014.6;;;27.4;60.8
54439;BME280;40347;53.848;27.498;2022-08-06T08:08:32;1014.5;;;27.7;60.7
54439;BME280;40347;53.848;27.498;2022-08-06T08:13:32;1014.5;;;28.3;59.7
54439;BME280;40347;53.848;27.498;2022-08-06T08:18:32;1014.5;;;29.1;58
54439;BME280;40347;53.848;27.498;2022-08-06T08:23:32;1014.5;;;29.5;56.2
54439;BME280;40347;53.848;27.498;2022-08-06T08:28:33;1014.5;;;29.6;55.9
54439;BME280;40347;53.848;27.498;2022-08-06T08:33:32;1014.4;;;29.6;55.7
54439;BME280;40347;53.848;27.498;2022-08-06T08:38:33;1014.4;;;29.4;55.7
54439;BME280;40347;53.848;27.498;2022-08-06T08:43:35;1014.4;;;29.4;55.8
54439;BME280;40347;53.848;27.498;2022-08-06T08:48:32;1014.3;;;29.3;55.5
54439;BME280;40347;53.848;27.498;2022-08-06T08:53:34;1014.3;;;29.4;55.5
54439;BME280;40347;53.848;27.498;2022-08-06T08:58:32;1014.3;;;29.5;55.7
54439;BME280;40347;53.848;27.498;2022-08-06T09:03:33;1014.3;;;29.9;54.7
54439;BME280;40347;53.848;27.498;2022-08-06T09:08:32;1014.2;;;30.3;54.4
54439;BME280;40347;53.848;27.498;2022-08-06T09:13:32;1014.2;;;30.5;53.8
54439;BME280;40347;53.848;27.498;2022-08-06T09:18:32;1014.2;;;30.6;52.7
54439;BME280;40347;53.848;27.498;2022-08-06T09:23:32;1014.1;;;30.6;52.8
54439;BME280;40347;53.848;27.498;2022-08-06T09:28:36;1014.2;;;30.3;53.1
54439;BME280;40347;53.848;27.498;2022-08-06T09:33:33;1014.2;;;29.7;53.9
54439;BME280;40347;53.848;27.498;2022-08-06T09:38:44;1014.1;;;29.5;54.6
54439;BME280;40347;53.848;27.498;2022-08-06T09:43:33;1014.1;;;29.4;55
54439;BME280;40347;53.848;27.498;2022-08-06T09:48:33;1014.1;;;29.4;54.7
54439;BME280;40347;53.848;27.498;2022-08-06T09:53:32;1014.1;;;29.3;54.5
54439;BME280;40347;53.848;27.498;2022-08-06T09:58:33;1014.2;;;29.2;54.7
54439;BME280;40347;53.848;27.498;2022-08-06T10:03:37;1014.2;;;29.1;55.3
54439;BME280;40347;53.848;27.498;2022-08-06T10:08:32;1014.3;;;28.9;56.5
54439;BME280;40347;53.848;27.498;2022-08-06T10:13:33;1014.2;;;28.6;58.3
54439;BME280;40347;53.848;27.498;2022-08-06T10:18:48;1014.2;;;28.4;59.2
54439;BME280;40347;53.848;27.498;2022-08-06T10:23:33;1014.2;;;28.4;59.1
54439;BME280;40347;53.848;27.498;2022-08-06T10:28:35;1014.2;;;28.3;59.3
54439;BME280;40347;53.848;27.498;2022-08-06T10:33:34;1014.2;;;28.3;58.8
54439;BME280;40347;53.848;27.498;2022-08-06T10:38:33;1014.1;;;28.5;58.7
54439;BME280;40347;53.848;27.498;2022-08-06T10:43:33;1014.1;;;28.7;58.5
54439;BME280;40347;53.848;27.498;2022-08-06T10:48:33;1014;;;28.8;59
54439;BME280;40347;53.848;27.498;2022-08-06T10:53:33;1014.1;;;28.6;59
54439;BME280;40347;53.848;27.498;2022-08-06T10:58:33;1014;;;28.5;59.3
54439;BME280;40347;53.848;27.498;2022-08-06T11:03:37;1013.9;;;28.5;59.8
54439;BME280;40347;53.848;27.498;2022-08-06T11:08:38;1013.9;;;29;58
54439;BME280;40347;53.848;27.498;2022-08-06T11:13:33;1013.9;;;29.8;56.7
54439;BME280;40347;53.848;27.498;2022-08-06T11:18:32;1013.8;;;30.4;54.4
54439;BME280;40347;53.848;27.498;2022-08-06T11:23:32;1013.7;;;30.5;53.7
54439;BME280;40347;53.848;27.498;2022-08-06T11:39:04;1013.6;;;29.6;55.5
54439;BME280;40347;53.848;27.498;2022-08-06T11:44:02;1013.6;;;29.8;54.9
54439;BME280;40347;53.848;27.498;2022-08-06T11:48:33;1013.5;;;29.9;54.7
54439;BME280;40347;53.848;27.498;2022-08-06T11:53:39;1013.5;;;30;54.1
54439;BME280;40347;53.848;27.498;2022-08-06T11:58:32;1013.4;;;30.1;53.8
54439;BME280;40347;53.848;27.498;2022-08-06T12:03:36;1013.4;;;30.1;53.3
54439;BME280;40347;53.848;27.498;2022-08-06T12:08:32;1013.3;;;30;53.1
54439;BME280;40347;53.848;27.498;2022-08-06T12:13:36;1013.3;;;29.9;53
54439;BME280;40347;53.848;27.498;2022-08-06T12:18:40;1013.3;;;29.9;53
54439;BME280;40347;53.848;27.498;2022-08-06T12:23:32;1013.3;;;30.1;52.5
54439;BME280;40347;53.848;27.498;2022-08-06T12:28:32;1013.3;;;30.1;52.6
54439;BME280;40347;53.848;27.498;2022-08-06T12:33:33;1013.2;;;30;52.6
54439;BME280;40347;53.848;27.498;2022-08-06T12:38:32;1013.1;;;30;52.8
54439;BME280;40347;53.848;27.498;2022-08-06T12:43:33;1013.1;;;29.8;53
54439;BME280;40347;53.848;27.498;2022-08-06T12:48:34;1013.2;;;29.6;53.4
54439;BME280;40347;53.848;27.498;2022-08-06T12:53:33;1013.2;;;29.4;53.7
54439;BME280;40347;53.848;27.498;2022-08-06T12:58:33;1013.2;;;29.5;53.9
54439;BME280;40347;53.848;27.498;2022-08-06T13:03:33;1013.1;;;29.7;53.4
54439;BME280;40347;53.848;27.498;2022-08-06T13:08:32;1013.1;;;30;53.1
54439;BME280;40347;53.848;27.498;2022-08-06T13:14:47;1013.1;;;30.1;53.1
54439;BME280;40347;53.848;27.498;2022-08-06T13:18:33;1013;;;29.6;56.2
54439;BME280;40347;53.848;27.498;2022-08-06T13:23:33;1013;;;28.8;58.4
54439;BME280;40347;53.848;27.498;2022-08-06T13:28:32;1013.1;;;28;58.4
54439;BME280;40347;53.848;27.498;2022-08-06T13:33:32;1013.1;;;27.8;58.7
54439;BME280;40347;53.848;27.498;2022-08-06T13:38:33;1013.1;;;28.5;56.6
54439;BME280;40347;53.848;27.498;2022-08-06T13:43:40;1013;;;29.3;55.4
54439;BME280;40347;53.848;27.498;2022-08-06T13:48:32;1013;;;29.4;56.1
54439;BME280;40347;53.848;27.498;2022-08-06T13:53:32;1012.8;;;29;55.8
54439;BME280;40347;53.848;27.498;2022-08-06T13:58:32;1012.8;;;28.6;56.4
54439;BME280;40347;53.848;27.498;2022-08-06T14:03:32;1012.7;;;28.6;58.2
54439;BME280;40347;53.848;27.498;2022-08-06T14:08:32;1012.7;;;29;57.3
54439;BME280;40347;53.848;27.498;2022-08-06T14:13:32;1012.7;;;29.3;56.5
54439;BME280;40347;53.848;27.498;2022-08-06T14:18:32;1012.7;;;29.3;56.4
54439;BME280;40347;53.848;27.498;2022-08-06T14:23:32;1012.6;;;29.2;57.6
54439;BME280;40347;53.848;27.498;2022-08-06T14:28:33;1012.6;;;28.9;58.4
54439;BME280;40347;53.848;27.498;2022-08-06T14:33:32;1012.6;;;28.8;58.8
54439;BME280;40347;53.848;27.498;2022-08-06T14:38:32;1012.6;;;29;58.6
54439;BME280;40347;53.848;27.498;2022-08-06T14:43:32;1012.7;;;29.2;56.8
54439;BME280;40347;53.848;27.498;2022-08-06T14:48:32;1012.7;;;29.2;56
54439;BME280;40347;53.848;27.498;2022-08-06T14:53:32;1012.7;;;29.1;55.1
54439;BME280;40347;53.848;27.498;2022-08-06T14:58:32;1012.8;;;29.2;55
54439;BME280;40347;53.848;27.498;2022-08-06T15:03:32;1012.8;;;29.3;54.4
54439;BME280;40347;53.848;27.498;2022-08-06T15:08:33;1012.7;;;29.5;54.1
54439;BME280;40347;53.848;27.498;2022-08-06T15:13:32;1012.7;;;29.7;53.9
54439;BME280;40347;53.848;27.498;2022-08-06T15:18:32;1012.8;;;29.7;52.6
54439;BME280;40347;53.848;27.498;2022-08-06T15:23:32;1013;;;29.5;52
54439;BME280;40347;53.848;27.498;2022-08-06T15:28:32;1013.1;;;28.8;52.8
54439;BME280;40347;53.848;27.498;2022-08-06T15:33:33;1013;;;27.9;55.1
54439;BME280;40347;53.848;27.498;2022-08-06T15:38:33;1013.1;;;27.2;56.6
54439;BME280;40347;53.848;27.498;2022-08-06T15:43:32;1013.3;;;26.8;57.8
54439;BME280;40347;53.848;27.498;2022-08-06T15:48:32;1013.4;;;26.5;59.3
54439;BME280;40347;53.848;27.498;2022-08-06T15:53:32;1013.7;;;26.3;60
54439;BME280;40347;53.848;27.498;2022-08-06T15:58:32;1013.8;;;26.3;59.8
54439;BME280;40347;53.848;27.498;2022-08-06T16:03:32;1013.8;;;26.1;60.4
54439;BME280;40347;53.848;27.498;2022-08-06T16:08:32;1013.9;;;26;60.4
54439;BME280;40347;53.848;27.498;2022-08-06T16:13:32;1014;;;25.8;61
54439;BME280;40347;53.848;27.498;2022-08-06T16:18:32;1014.1;;;25.3;62.8
54439;BME280;40347;53.848;27.498;2022-08-06T16:23:32;1014.2;;;24.7;64.5
54439;BME280;40347;53.848;27.498;2022-08-06T16:28:32;1014.4;;;24.3;66.9
54439;BME280;40347;53.848;27.498;2022-08-06T16:33:32;1014.5;;;23.3;71.7
54439;BME280;40347;53.848;27.498;2022-08-06T16:38:32;1014.6;;;22.5;75.8
54439;BME280;40347;53.848;27.498;2022-08-06T16:43:32;1014.6;;;21.9;77.6
54439;BME280;40347;53.848;27.498;2022-08-06T16:48:32;1014.6;;;21.5;79.7
54439;BME280;40347;53.848;27.498;2022-08-06T16:53:32;1014.7;;;21.4;80.9
54439;BME280;40347;53.848;27.498;2022-08-06T16:58:32;1014.9;;;21.5;81.1
54439;BME280;40347;53.848;27.498;2022-08-06T17:03:32;1015;;;21.5;81.6
54439;BME280;40347;53.848;27.498;2022-08-06T17:08:32;1015.1;;;21.1;81.5
54439;BME280;40347;53.848;27.498;2022-08-06T17:13:32;1015.2;;;21;82.3
54439;BME280;40347;53.848;27.498;2022-08-06T17:18:32;1015.3;;;20.8;82.8
54439;BME280;40347;53.848;27.498;2022-08-06T17:23:32;1015.2;;;20.7;83.3
54439;BME280;40347;53.848;27.498;2022-08-06T17:28:32;1015.3;;;20.6;83.3
54439;BME280;40347;53.848;27.498;2022-08-06T17:33:32;1015.3;;;20.3;83.2
54439;BME280;40347;53.848;27.498;2022-08-06T17:38:32;1015.4;;;20.1;82.9
54439;BME280;40347;53.848;27.498;2022-08-06T17:43:32;1015.3;;;20;83.1
54439;BME280;40347;53.848;27.498;2022-08-06T17:48:32;1015.3;;;20;82.9
54439;BME280;40347;53.848;27.498;2022-08-06T17:53:32;1015;;;20;82.4
54439;BME280;40347;53.848;27.498;2022-08-06T17:58:32;1015;;;20.1;81.8
54439;BME280;40347;53.848;27.498;2022-08-06T18:03:32;1015;;;20.2;81.1
54439;BME280;40347;53.848;27.498;2022-08-06T18:08:32;1015;;;20.2;80.6
54439;BME280;40347;53.848;27.498;2022-08-06T18:13:32;1015;;;20.2;80.5
54439;BME280;40347;53.848;27.498;2022-08-06T18:18:32;1015.2;;;20.3;80.1
54439;BME280;40347;53.848;27.498;2022-08-06T18:23:32;1015.1;;;20.4;79.8
54439;BME280;40347;53.848;27.498;2022-08-06T18:28:32;1015.1;;;20.5;79.3
54439;BME280;40347;53.848;27.498;2022-08-06T18:33:33;1015.2;;;20.5;79.2
54439;BME280;40347;53.848;27.498;2022-08-06T18:38:32;1015.3;;;20.4;78.1
54439;BME280;40347;53.848;27.498;2022-08-06T18:43:32;1015.5;;;20.2;78.3
54439;BME280;40347;53.848;27.498;2022-08-06T18:48:32;1015.5;;;20.1;78.1
54439;BME280;40347;53.848;27.498;2022-08-06T18:53:32;1015.7;;;19.9;77.9
54439;BME280;40347;53.848;27.498;2022-08-06T18:58:32;1015.7;;;19.7;78
54439;BME280;40347;53.848;27.498;2022-08-06T19:03:32;1015.8;;;19.5;78.5
54439;BME280;40347;53.848;27.498;2022-08-06T19:08:32;1015.8;;;19.3;78.8
54439;BME280;40347;53.848;27.498;2022-08-06T19:13:33;1015.8;;;19.2;78.9
54439;BME280;40347;53.848;27.498;2022-08-06T19:18:32;1015.9;;;18.9;79.4
54439;BME280;40347;53.848;27.498;2022-08-06T19:23:32;1016;;;18.9;79.7
54439;BME280;40347;53.848;27.498;2022-08-06T19:28:32;1016;;;18.9;79.3
54439;BME280;40347;53.848;27.498;2022-08-06T19:33:32;1016.1;;;18.7;78.2
54439;BME280;40347;53.848;27.498;2022-08-06T19:38:32;1016.2;;;18.6;77.8
54439;BME280;40347;53.848;27.498;2022-08-06T19:43:32;1016.2;;;18.5;77.3
54439;BME280;40347;53.848;27.498;2022-08-06T19:48:32;1016.2;;;18.3;77.1
54439;BME280;40347;53.848;27.498;2022-08-06T19:53:32;1016.3;;;17.9;76.1
54439;BME280;40347;53.848;27.498;2022-08-06T19:58:32;1016.2;;;17.8;75
54439;BME280;40347;53.848;27.498;2022-08-06T20:03:34;1016.3;;;17.6;74.1
54439;BME280;40347;53.848;27.498;2022-08-06T20:08:33;1016.4;;;17.6;73.7
54439;BME280;40347;53.848;27.498;2022-08-06T20:13:33;1016.4;;;17.5;72.6
54439;BME280;40347;53.848;27.498;2022-08-06T20:18:32;1016.5;;;17.4;71
54439;BME280;40347;53.848;27.498;2022-08-06T20:23:32;1016.6;;;17.4;70.1
54439;BME280;40347;53.848;27.498;2022-08-06T20:28:32;1016.6;;;17.3;69
54439;BME280;40347;53.848;27.498;2022-08-06T20:33:32;1016.6;;;17.3;68.2
54439;BME280;40347;53.848;27.498;2022-08-06T20:38:32;1016.6;;;17.3;68.1
54439;BME280;40347;53.848;27.498;2022-08-06T20:43:32;1016.6;;;17.3;67.2
54439;BME280;40347;53.848;27.498;2022-08-06T20:48:32;1016.6;;;17.3;66.8
54439;BME280;40347;53.848;27.498;2022-08-06T20:53:32;1016.8;;;17.2;66.6
54439;BME280;40347;53.848;27.498;2022-08-06T20:58:32;1016.9;;;17.1;66.9
54439;BME280;40347;53.848;27.498;2022-08-06T21:03:32;1017;;;17;67.2
54439;BME280;40347;53.848;27.498;2022-08-06T21:08:33;1017.1;;;16.6;68.9
54439;BME280;40347;53.848;27.498;2022-08-06T21:13:32;1017.1;;;16.2;71.2
54439;BME280;40347;53.848;27.498;2022-08-06T21:18:33;1017.3;;;15.9;72.7
54439;BME280;40347;53.848;27.498;2022-08-06T21:23:32;1017.3;;;15.8;73.1
54439;BME280;40347;53.848;27.498;2022-08-06T21:28:32;1017.3;;;15.8;73.1
54439;BME280;40347;53.848;27.498;2022-08-06T21:33:32;1017.3;;;15.7;73.8
54439;BME280;40347;53.848;27.498;2022-08-06T21:38:32;1017.1;;;15.6;74.5
54439;BME280;40347;53.848;27.498;2022-08-06T21:43:32;1017.1;;;15.4;75.7
54439;BME280;40347;53.848;27.498;2022-08-06T21:48:32;1017.1;;;15.4;76.1
54439;BME280;40347;53.848;27.498;2022-08-06T21:53:32;1017.1;;;15.3;77.3
54439;BME280;40347;53.848;27.498;2022-08-06T21:58:32;1017.1;;;15.2;77.8
54439;BME280;40347;53.848;27.498;2022-08-06T22:03:33;1017;;;15.3;78
54439;BME280;40347;53.848;27.498;2022-08-06T22:08:33;1017.1;;;15.3;77.9
54439;BME280;40347;53.848;27.498;2022-08-06T22:13:33;1017.3;;;15.4;77.5
54439;BME280;40347;53.848;27.498;2022-08-06T22:18:32;1017.3;;;15.5;77.1
54439;BME280;40347;53.848;27.498;2022-08-06T22:23:32;1017.3;;;15.6;76.5
54439;BME280;40347;53.848;27.498;2022-08-06T22:28:32;1017.2;;;15.7;76.7
54439;BME280;40347;53.848;27.498;2022-08-06T22:33:32;1017.2;;;15.7;76.9
54439;BME280;40347;53.848;27.498;2022-08-06T22:38:32;1017.2;;;15.7;77
54439;BME280;40347;53.848;27.498;2022-08-06T22:43:32;1017.2;;;15.8;76.6
54439;BME280;40347;53.848;27.498;2022-08-06T22:48:32;1017.2;;;15.8;76.6
54439;BME280;40347;53.848;27.498;2022-08-06T22:53:32;1017.3;;;15.8;76.6
54439;BME280;40347;53.848;27.498;2022-08-06T22:58:32;1017.3;;;15.9;76.3
54439;BME280;40347;53.848;27.498;2022-08-06T23:03:32;1017.4;;;15.9;76.1
54439;BME280;40347;53.848;27.498;2022-08-06T23:08:32;1017.4;;;15.9;76
54439;BME280;40347;53.848;27.498;2022-08-06T23:13:32;1017.4;;;16;75.8
54439;BME280;40347;53.848;27.498;2022-08-06T23:18:32;1017.4;;;16.1;75.9
54439;BME280;40347;53.848;27.498;2022-08-06T23:23:32;1017.4;;;16;75.7
54439;BME280;40347;53.848;27.498;2022-08-06T23:28:32;1017.4;;;16;75.7
54439;BME280;40347;53.848;27.498;2022-08-06T23:33:32;1017.3;;;16;75.7
54439;BME280;40347;53.848;27.498;2022-08-06T23:38:32;1017.3;;;16;75.6
54439;BME280;40347;53.848;27.498;2022-08-06T23:43:33;1017.3;;;16;75.3
54439;BME280;40347;53.848;27.498;2022-08-06T23:48:32;1017.3;;;15.9;75.1
54439;BME280;40347;53.848;27.498;2022-08-06T23:53:33;1017.4;;;16;74.8
54439;BME280;40347;53.848;27.498;2022-08-06T23:58:32;1017.4;;;16;74.5
